CPX426 Details

Departure: Tulsa International Airport (KTUL)
Arrival: El Paso International Airport (KELP)
Route: TUL J78 IRW J74 TXO CME SAMMR3


Current Weather Information
KTUL 232253Z 15018G28KT 10SM FEW045 30/20 A2993 RMK AO2 PK WND 15029/2233 SLP126 T03000200
KELP 232251Z 26010G19KT 10SM CLR 29/M06 A2989 RMK AO2 SLP057 BLDU ALQDS T02891056